Latest Weather Observations for Wagga Wagga

IDN60801

Issued at 11:02 pm EDT Monday 27 March 2017 (issued every 30 minutes, with the page automatically refreshed every 10 minutes)

About weather observations | Map of weather stations | Latest weather observations for NSW | Other Formats
Station Details ID: 072150 Name: WAGGA WAGGA AMO Lat: -35.16 Lon: 147.46 Height: 212.0 m
Data from the previous 72 hours. | See also: Recent months at Wagga Wagga
Date/Time
EDT
Temp
°C
App
Temp
°C
Dew
Point
°C
Rel
Hum
%
Delta-T
°C
Wind Press
QNH
hPa
Press
MSL
hPa
Rain since
9am
mm
Dir  Spd
km/h
Gust
km/h
Spd
kts
Gust
kts
27/11:00pm 20.6 20.8 16.7 78 2.4 WNW 11 15 6 8 1012.0 1011.3 10.8
27/10:30pm 21.5 21.3 16.6 73 3.0 NW 13 19 7 10 1012.0 1011.3 10.8
27/10:00pm 21.9 21.5 16.2 70 3.5 WNW 13 15 7 8 1011.7 1011.0 10.8
27/09:30pm 22.7 21.5 16.0 66 4.1 W 17 20 9 11 1011.6 1010.9 10.8
27/09:00pm 23.0 23.3 17.0 69 3.7 W 11 13 6 7 1010.9 1010.1 10.8
27/08:30pm 23.8 22.8 15.6 60 5.0 E 15 19 8 10 1009.9 1009.1 10.8
27/08:00pm 24.2 22.3 15.3 57 5.4 SW 19 26 10 14 1011.4 1010.6 10.8
27/07:30pm 23.8 21.7 16.2 62 4.7 S 22 30 12 16 1009.8 1009.0 10.8
27/07:00pm 24.4 22.8 17.4 65 4.4 SW 22 39 12 21 1009.5 1008.7 10.8
27/06:32pm 23.0 24.9 21.3 90 1.1 NNW 13 20 7 11 1009.0 1008.3 10.8
27/06:30pm 23.0 24.9 21.3 90 1.1 NNW 13 20 7 11 1008.8 1008.1 10.8
27/06:17pm 22.3 21.3 21.2 93 0.7 W 28 89 15 48 1008.5 1007.8 10.6
27/06:10pm 21.8 17.3 21.0 95 0.5 WNW 46 102 25 55 1009.1 1008.4 7.4
27/06:08pm 21.7 18.5 21.1 96 0.4 NW 39 102 21 55 1009.8 1009.0 5.0
27/06:07pm 22.1 20.1 21.2 95 0.6 NW 33 102 18 55 1009.4 1008.6 2.6
27/06:06pm 26.2 24.3 19.4 66 4.4 NW 28 78 15 42 1008.6 1007.9 0.6
27/06:04pm 28.2 27.7 19.0 57 6.0 NNW 20 48 11 26 1007.5 1006.8 0.4
27/06:00pm 31.1 30.6 17.8 45 8.6 N 17 26 9 14 1006.4 1005.6 0.0
27/05:30pm 33.8 31.5 14.7 31 11.9 N 20 28 11 15 1005.9 1005.1 0.0
27/05:00pm 34.0 31.2 14.4 30 12.2 N 22 33 12 18 1006.6 1005.8 0.0
27/04:30pm 34.9 31.5 14.8 30 12.6 N 26 33 14 18 1007.3 1006.5 0.0
27/04:00pm 35.3 33.1 15.0 29 12.8 N 20 32 11 17 1007.7 1007.0 0.0
27/03:30pm 34.0 31.4 14.8 31 12.0 N 22 33 12 18 1008.1 1007.4 0.0
27/03:00pm 34.1 31.2 15.2 32 11.9 N 24 32 13 17 1008.7 1008.0 0.0
27/02:30pm 33.3 31.4 15.3 34 11.3 N 19 30 10 16 1009.4 1008.6 0.0
27/02:00pm 33.2 31.3 15.8 35 11.0 N 20 35 11 19 1009.8 1009.0 0.0
27/01:30pm 32.4 30.6 15.9 37 10.4 NNE 20 33 11 18 1010.6 1009.8 0.0
27/01:00pm 31.0 29.1 15.7 39 9.6 NNE 20 32 11 17 1011.4 1010.6 0.0
27/12:30pm 31.0 29.2 16.1 40 9.4 NNE 20 30 11 16 1011.7 1011.0 0.0
27/12:00pm 29.7 27.9 16.1 43 8.5 N 20 30 11 16 1012.4 1011.7 0.0
27/11:30am 28.5 26.7 15.4 45 8.1 NNE 19 28 10 15 1012.8 1012.1 0.0
27/11:00am 27.9 25.7 15.0 45 7.9 NNE 20 28 11 15 1013.3 1012.6 0.0
27/10:30am 27.3 24.9 15.4 48 7.3 NNE 22 30 12 16 1013.5 1012.8 0.0
27/10:00am 25.8 24.9 15.9 54 6.1 NE 15 19 8 10 1013.8 1013.1 0.0
27/09:30am 24.5 23.5 15.5 57 5.5 ENE 15 22 8 12 1013.9 1013.2 0.0
27/09:00am 23.3 21.4 15.2 60 4.9 ENE 19 22 10 12 1014.2 1013.4 0.0
27/08:30am 22.1 21.2 14.9 63 4.3 E 13 19 7 10 1014.0 1013.3 0.0
27/08:00am 21.0 20.5 14.8 67 3.7 E 11 13 6 7 1013.8 1013.1 0.0
27/07:30am 20.2 19.2 14.6 70 3.3 E 13 17 7 9 1013.7 1013.0 0.0
27/07:00am 20.4 19.0 14.5 69 3.5 E 15 17 8 9 1013.6 1012.9 0.0
27/06:30am 20.9 19.4 14.3 66 3.9 E 15 19 8 10 1013.5 1012.8 0.0
27/06:00am 21.2 20.1 14.2 64 4.1 E 13 15 7 8 1013.3 1012.6 0.0
27/05:30am 21.5 20.2 13.8 61 4.5 E 13 13 7 7 1013.1 1012.4 0.0
27/05:00am 21.4 20.0 13.5 60 4.6 E 13 17 7 9 1012.9 1012.2 0.0
27/04:30am 21.8 20.0 13.4 59 4.9 ENE 15 19 8 10 1012.9 1012.2 0.0
27/04:00am 21.9 19.6 13.1 57 5.1 E 17 26 9 14 1013.0 1012.3 0.0
27/03:30am 21.8 19.6 13.2 58 5.0 ENE 17 22 9 12 1013.2 1012.5 0.0
27/03:00am 22.5 21.4 13.0 55 5.5 ENE 11 15 6 8 1013.1 1012.4 0.0
27/02:30am 22.5 21.4 13.2 55 5.4 ENE 11 15 6 8 1013.4 1012.7 0.0
27/02:00am 22.6 21.2 13.3 55 5.4 ENE 13 17 7 9 1013.4 1012.7 0.0
27/01:30am 22.2 21.4 13.9 59 4.9 E 11 11 6 6 1013.6 1012.9 0.0
27/01:00am 22.8 21.9 13.8 57 5.3 ESE 11 13 6 7 1013.9 1013.2 0.0
27/12:30am 22.3 21.5 14.0 59 4.9 ESE 11 13 6 7 1013.9 1013.2 0.0
27/12:00am 20.7 21.5 15.9 74 2.9 ENE 6 7 3 4 1014.0 1013.3 0.0
 
Date/Time
EDT
Temp
°C
App
Temp
°C
Dew
Point
°C
Rel
Hum
%
Delta-T
°C
Wind Press
QNH
hPa
Press
MSL
hPa
Rain since
9am
mm
Dir  Spd
km/h
Gust
km/h
Spd
kts
Gust
kts
26/11:30pm 22.0 21.6 14.2 61 4.6 ENE 9 9 5 5 1014.0 1013.3 0.0
26/11:00pm 21.1 20.9 15.8 71 3.2 ESE 11 15 6 8 1014.4 1013.6 0.0
26/10:30pm 21.9 22.4 15.0 65 4.1 ENE 6 9 3 5 1014.3 1013.5 0.0
26/10:00pm 22.8 23.1 14.4 59 5.0 ENE 6 9 3 5 1014.3 1013.5 0.0
26/09:30pm 24.0 25.0 14.3 54 5.8 E 2 7 1 4 1014.0 1013.3 0.0
26/09:00pm 25.3 24.7 13.5 48 7.0 E 9 11 5 6 1013.7 1013.0 0.0
26/08:30pm 24.8 25.0 14.3 52 6.3 WSW 6 9 3 5 1013.4 1012.7 0.0
26/08:00pm 25.8 27.0 13.9 47 7.1 CALM 0 0 0 0 1013.2 1012.5 0.0
26/07:30pm 26.5 27.9 14.4 47 7.3 CALM 0 0 0 0 1012.9 1012.2 0.0
26/07:00pm 28.5 29.9 15.4 45 8.1 WSW 2 9 1 5 1012.8 1012.1 0.0
26/06:30pm 30.4 29.8 12.4 33 10.7 WSW 7 9 4 5 1012.6 1011.9 0.0
26/06:00pm 30.8 29.2 11.5 30 11.3 WNW 11 15 6 8 1012.5 1011.8 0.0
26/05:30pm 31.3 29.0 11.6 29 11.6 WNW 15 20 8 11 1012.4 1011.7 0.0
26/05:00pm 31.5 29.0 10.9 28 12.0 W 15 19 8 10 1012.4 1011.7 0.0
26/04:30pm 31.3 30.7 11.6 29 11.6 WSW 6 11 3 6 1012.5 1011.8 0.0
26/04:00pm 31.9 31.7 11.8 29 11.9 NW 4 11 2 6 1012.7 1012.0 0.0
26/03:30pm 30.8 30.7 12.0 31 11.1 S 4 9 2 5 1012.9 1012.2 0.0
26/03:00pm 31.3 30.0 11.1 29 11.8 SSW 9 19 5 10 1013.2 1012.5 0.0
26/02:30pm 30.4 30.6 11.7 31 11.0 SSE 2 9 1 5 1013.4 1012.7 0.0
26/02:00pm 30.5 30.4 13.4 35 10.3 E 6 11 3 6 1013.8 1013.1 0.0
26/01:30pm 30.2 30.0 13.0 34 10.3 NE 6 11 3 6 1014.3 1013.5 0.0
26/01:00pm 29.3 28.5 12.8 36 9.8 NE 9 15 5 8 1014.6 1013.8 0.0
26/12:30pm 27.6 26.9 13.3 41 8.5 NE 9 15 5 8 1015.1 1014.3 0.0
26/12:00pm 27.2 25.9 13.8 43 8.0 N 13 17 7 9 1015.4 1014.6 0.0
26/11:30am 25.5 24.4 14.3 50 6.7 ENE 13 17 7 9 1015.7 1015.0 0.0
26/11:00am 25.1 23.7 14.6 52 6.3 ENE 15 19 8 10 1015.9 1015.2 0.0
26/10:30am 23.2 22.5 14.3 57 5.3 ENE 11 17 6 9 1016.1 1015.4 0.0
26/10:00am 21.9 20.9 14.7 63 4.3 ENE 13 17 7 9 1016.1 1015.4 0.0
26/09:30am 20.1 19.5 14.5 70 3.3 ENE 11 13 6 7 1016.1 1015.4 0.0
26/09:00am 18.8 18.8 15.1 79 2.2 E 9 11 5 6 1016.0 1015.3 0.0
26/08:30am 17.5 16.9 14.6 83 1.7 ESE 11 13 6 7 1015.7 1015.0 0.0
26/08:00am 16.4 15.8 14.5 88 1.1 ESE 11 13 6 7 1015.3 1014.5 0.0
26/07:30am 15.6 15.5 14.0 90 0.9 ENE 7 9 4 5 1015.1 1014.3 0.0
26/07:00am 16.0 15.7 14.3 90 1.0 E 9 13 5 7 1014.7 1013.9 0.0
26/06:30am 16.1 15.0 14.4 90 1.0 E 13 15 7 8 1014.3 1013.5 0.0
26/06:00am 15.6 15.2 14.0 90 0.9 ESE 9 13 5 7 1014.0 1013.3 0.0
26/05:30am 16.1 16.4 14.4 90 1.0 ESE 6 9 3 5 1013.9 1013.2 0.0
26/05:00am 16.3 17.3 14.4 88 1.1 ESE 2 7 1 4 1013.8 1013.1 0.0
26/04:30am 16.5 16.7 14.6 88 1.1 ESE 7 7 4 4 1013.8 1013.1 0.0
26/04:00am 16.8 16.6 14.7 87 1.2 ESE 9 11 5 6 1013.7 1013.0 0.0
26/03:30am 16.6 16.4 14.7 88 1.1 E 9 11 5 6 1013.7 1013.0 0.0
26/03:00am 17.1 17.4 14.9 87 1.3 NE 7 11 4 6 1014.3 1013.5 0.0
26/02:30am 17.8 18.3 15.1 84 1.6 ESE 6 7 3 4 1014.4 1013.6 0.0
26/02:00am 18.2 17.8 15.3 83 1.7 ESE 11 13 6 7 1014.7 1013.9 0.0
26/01:30am 18.0 18.5 15.5 85 1.5 E 7 9 4 5 1014.6 1013.8 0.0
26/01:00am 18.6 19.0 15.4 81 1.9 ESE 7 9 4 5 1014.7 1013.9 0.0
26/12:30am 18.8 18.9 15.4 80 2.0 E 9 11 5 6 1014.9 1014.1 0.0
26/12:00am 18.8 18.9 15.4 80 2.0 ESE 9 13 5 7 1015.0 1014.2 0.0
 
Date/Time
EDT
Temp
°C
App
Temp
°C
Dew
Point
°C
Rel
Hum
%
Delta-T
°C
Wind Press
QNH
hPa
Press
MSL
hPa
Rain since
9am
mm
Dir  Spd
km/h
Gust
km/h
Spd
kts
Gust
kts
25/11:30pm 19.1 18.4 15.4 79 2.2 E 13 13 7 7 1014.7 1013.9 0.0
25/11:00pm 18.8 20.6 15.4 80 2.0 CALM 0 6 0 3 1015.1 1014.3 0.0
25/10:30pm 19.5 19.3 15.7 78 2.3 ESE 11 13 6 7 1014.8 1014.0 0.0
25/10:00pm 20.1 19.5 15.6 75 2.7 E 13 15 7 8 1014.4 1013.6 0.0
25/09:30pm 20.6 21.1 15.6 73 3.0 E 7 9 4 5 1014.5 1013.7 0.0
25/09:00pm 21.0 21.5 15.5 71 3.3 NE 7 9 4 5 1014.3 1013.5 0.0
25/08:30pm 21.4 21.5 15.6 69 3.5 E 9 11 5 6 1013.8 1013.1 0.0
25/08:00pm 22.1 21.5 15.6 66 3.9 ENE 13 15 7 8 1013.5 1012.8 0.0
25/07:30pm 22.9 22.5 15.3 62 4.6 ENE 11 11 6 6 1013.4 1012.7 0.0
25/07:00pm 23.9 22.7 15.1 58 5.3 ENE 15 17 8 9 1013.0 1012.3 0.0
25/06:30pm 25.0 24.0 14.7 52 6.2 E 13 19 7 10 1013.0 1012.3 0.0
25/06:00pm 25.6 24.6 14.7 51 6.6 E 13 19 7 10 1012.7 1012.0 0.0
25/05:30pm 26.2 25.9 14.4 48 7.1 ESE 9 15 5 8 1012.7 1012.0 0.0
25/05:00pm 26.8 26.0 15.2 49 7.1 ENE 13 19 7 10 1012.5 1011.8 0.0
25/04:30pm 26.3 26.9 15.3 50 6.7 SSW 6 11 3 6 1012.7 1012.0 0.0
25/04:00pm 26.0 26.8 15.8 53 6.3 ENE 6 15 3 8 1012.8 1012.1 0.0
25/03:30pm 25.9 26.4 15.0 51 6.6 NE 6 15 3 8 1013.0 1012.3 0.0
25/03:00pm 25.2 25.6 14.8 52 6.3 ENE 6 13 3 7 1013.0 1012.3 0.0
25/02:30pm 25.6 26.0 15.3 53 6.3 WNW 7 13 4 7 1013.3 1012.6 0.0
25/02:00pm 24.8 24.6 14.7 53 6.1 NNE 9 15 5 8 1013.6 1012.9 0.0
25/01:30pm 23.8 22.7 14.4 55 5.6 ENE 13 17 7 9 1013.8 1013.1 0.0
25/01:00pm 22.8 21.2 14.0 57 5.2 ENE 15 20 8 11 1014.0 1013.3 0.0
25/12:30pm 23.2 21.4 13.3 53 5.8 ENE 15 24 8 13 1015.0 1014.2 0.0
25/12:00pm 23.0 21.1 13.0 53 5.8 ENE 15 30 8 16 1015.5 1014.7 0.0
25/11:30am 22.9 20.6 13.1 54 5.7 E 17 20 9 11 1016.0 1015.3 0.0
25/11:00am 21.8 19.4 12.5 55 5.3 ENE 17 22 9 12 1016.1 1015.4 0.0
25/10:30am 21.4 18.6 12.5 57 5.1 ENE 19 26 10 14 1016.0 1015.3 0.0
25/10:00am 20.3 16.5 12.4 60 4.5 ENE 24 30 13 16 1016.0 1015.3 0.0
25/09:30am 20.0 16.6 12.4 61 4.3 E 22 28 12 15 1016.0 1015.3 0.0
25/09:00am 20.1 17.4 12.9 63 4.1 ENE 19 26 10 14 1015.5 1014.7 0.0
25/08:30am 18.5 15.7 12.5 68 3.4 E 19 24 10 13 1015.5 1014.7 0.0
25/08:00am 18.2 15.4 12.5 69 3.2 E 19 22 10 12 1015.3 1014.5 0.0
25/07:30am 18.0 15.6 12.7 71 3.0 E 17 20 9 11 1015.2 1014.4 0.0
25/07:00am 17.7 14.9 12.5 71 2.9 E 19 26 10 14 1014.9 1014.1 0.0
25/06:30am 17.9 15.1 12.6 71 3.0 E 19 26 10 14 1015.0 1014.2 0.0
25/06:00am 17.9 15.1 12.6 71 3.0 E 19 26 10 14 1014.9 1014.1 0.0
25/05:30am 17.9 15.0 12.8 72 2.9 E 20 28 11 15 1014.9 1014.1 0.0
25/05:00am 18.0 15.0 12.7 71 3.0 E 20 28 11 15 1014.9 1014.1 0.0
25/04:30am 18.0 14.3 12.7 71 3.0 E 24 30 13 16 1014.9 1014.1 0.0
25/04:00am 18.0 14.6 12.5 70 3.1 E 22 28 12 15 1014.9 1014.1 0.0
25/03:30am 18.0 15.2 12.7 71 3.0 ENE 19 26 10 14 1015.2 1014.4 0.0
25/03:00am 18.2 15.4 12.7 70 3.1 ENE 19 26 10 14 1015.9 1015.2 0.0
25/02:30am 18.5 16.1 12.8 69 3.2 ENE 17 26 9 14 1016.1 1015.4 0.0
25/02:00am 18.9 15.9 12.7 67 3.5 E 20 28 11 15 1016.4 1015.7 0.0
25/01:30am 19.3 15.6 12.8 66 3.7 E 24 32 13 17 1016.3 1015.6 0.0
25/01:00am 19.5 16.6 12.8 65 3.8 E 20 33 11 18 1016.4 1015.7 0.0
25/12:30am 19.8 17.8 12.8 64 4.0 ENE 15 24 8 13 1016.6 1015.9 0.0
25/12:00am 20.2 17.2 12.6 61 4.3 ENE 20 32 11 17 1016.8 1016.1 0.0
 
Date/Time
EDT
Temp
°C
App
Temp
°C
Dew
Point
°C
Rel
Hum
%
Delta-T
°C
Wind Press
QNH
hPa
Press
MSL
hPa
Rain since
9am
mm
Dir  Spd
km/h
Gust
km/h
Spd
kts
Gust
kts
24/11:30pm 20.6 15.3 12.5 59 4.6 ENE 32 44 17 24 1016.5 1015.8 0.0

Other Formats:

Comma delimited format used in spreadsheet applications
http://www.bom.gov.au/fwo/IDN60801/IDN60801.94910.axf

JavaScript Object Notation format (JSON) in row-major order
http://www.bom.gov.au/fwo/IDN60801/IDN60801.94910.json